Time;durP1;ratioP1;P1;durP2;ratioP2;P2;SDS_P1;SDS_P2;PMS_P1;PMS_P2;Temp;Humidity;BMP_temperature;BMP_pressure;BME280_temperature;BME280_humidity;BME280_pressure;Samples;Min_cycle;Max_cycle;Signal;HPM_P1;HPM_P2
2023/02/24 00:01:36;;;;;;;0.60;0.50;;;;;;;;;;5097980;28;20432;-74
2023/02/24 00:04:06;;;;;;;0.60;0.50;;;;;;;;;;5100719;28;21037;-75
2023/02/24 00:06:37;;;;;;;1.60;1.00;;;;;;;;;;5096800;28;20434;-75
2023/02/24 00:09:07;;;;;;;0.67;0.60;;;;;;;;;;5100401;28;20439;-74
2023/02/24 00:11:35;;;;;;;0.60;0.60;;;;;;;;;;5088988;28;20537;-74
2023/02/24 00:14:04;;;;;;;0.60;0.60;;;;;;;;;;5085346;28;20459;-75
2023/02/24 00:16:31;;;;;;;0.60;0.60;;;;;;;;;;5096539;28;20511;-75
2023/02/24 00:18:58;;;;;;;0.60;0.60;;;;;;;;;;5095686;28;20434;-75
2023/02/24 00:21:27;;;;;;;0.63;0.63;;;;;;;;;;5081446;28;20801;-75
2023/02/24 00:23:55;;;;;;;1.00;0.90;;;;;;;;;;5102103;28;20979;-75
2023/02/24 00:26:22;;;;;;;0.60;0.60;;;;;;;;;;5101523;28;20461;-75
2023/02/24 00:28:49;;;;;;;0.60;0.60;;;;;;;;;;5095527;28;20437;-73
2023/02/24 00:31:17;;;;;;;0.60;0.60;;;;;;;;;;5120813;27;20484;-75
2023/02/24 00:33:46;;;;;;;0.60;0.60;;;;;;;;;;5102609;28;20528;-74
2023/02/24 00:36:16;;;;;;;0.70;0.70;;;;;;;;;;5098457;28;20429;-74
2023/02/24 00:38:45;;;;;;;0.60;0.60;;;;;;;;;;5101838;28;21100;-75
2023/02/24 00:41:14;;;;;;;0.60;0.60;;;;;;;;;;5103647;28;20461;-75
2023/02/24 00:43:48;;;;;;;0.60;0.60;;;;;;;;;;5101975;28;21032;-75
2023/02/24 00:46:16;;;;;;;0.60;0.60;;;;;;;;;;5108260;28;20840;-75
2023/02/24 00:48:44;;;;;;;0.60;0.60;;;;;;;;;;5101456;28;20485;-75
2023/02/24 00:51:15;;;;;;;0.60;0.60;;;;;;;;;;5104261;28;20452;-74
2023/02/24 00:53:43;;;;;;;0.60;0.60;;;;;;;;;;5102759;28;20752;-74
2023/02/24 00:56:11;;;;;;;0.60;0.60;;;;;;;;;;5088069;28;20535;-74
2023/02/24 00:58:38;;;;;;;0.60;0.60;;;;;;;;;;5100140;28;20453;-75
2023/02/24 01:01:12;;;;;;;0.60;0.60;;;;;;;;;;5102276;28;20434;-75
2023/02/24 01:03:40;;;;;;;0.80;0.80;;;;;;;;;;5093434;28;20441;-75
2023/02/24 01:06:08;;;;;;;0.60;0.60;;;;;;;;;;5106929;28;20818;-75
2023/02/24 01:08:37;;;;;;;0.60;0.60;;;;;;;;;;5099845;28;20552;-75
2023/02/24 01:13:51;;;;;;;0.60;0.50;;;;;;;;;;5108047;28;20468;-75
2023/02/24 01:16:20;;;;;;;0.60;0.60;;;;;;;;;;5100331;28;20441;-75
2023/02/24 01:18:46;;;;;;;0.60;0.57;;;;;;;;;;5108169;28;21056;-74
2023/02/24 01:21:15;;;;;;;0.60;0.60;;;;;;;;;;5100480;28;20518;-74
2023/02/24 01:23:42;;;;;;;0.60;0.60;;;;;;;;;;5103565;28;20478;-75
2023/02/24 01:26:09;;;;;;;0.60;0.53;;;;;;;;;;5107113;28;20469;-74
2023/02/24 01:28:38;;;;;;;1.97;1.17;;;;;;;;;;5102548;28;20473;-75
2023/02/24 01:31:07;;;;;;;0.60;0.60;;;;;;;;;;5099811;28;20493;-75
2023/02/24 01:33:38;;;;;;;0.60;0.60;;;;;;;;;;5117761;27;20583;-75
2023/02/24 01:36:09;;;;;;;0.70;0.60;;;;;;;;;;5105999;28;20442;-74
2023/02/24 01:38:38;;;;;;;0.67;0.67;;;;;;;;;;5103225;28;20513;-76
2023/02/24 01:41:04;;;;;;;0.70;0.70;;;;;;;;;;5102135;28;20449;-75
2023/02/24 01:43:50;;;;;;;0.60;0.50;;;;;;;;;;5099331;28;20973;-74
2023/02/24 01:46:22;;;;;;;0.60;0.60;;;;;;;;;;5096691;28;20554;-74
2023/02/24 01:48:50;;;;;;;0.70;0.70;;;;;;;;;;5097645;28;20448;-73
2023/02/24 01:51:17;;;;;;;0.60;0.60;;;;;;;;;;5100942;28;20453;-75
2023/02/24 01:53:45;;;;;;;0.70;0.70;;;;;;;;;;5100150;28;20510;-75
2023/02/24 01:56:12;;;;;;;0.60;0.50;;;;;;;;;;5085844;28;20810;-75
2023/02/24 01:58:39;;;;;;;0.97;0.87;;;;;;;;;;5107889;28;20458;-73
2023/02/24 02:01:08;;;;;;;0.60;0.60;;;;;;;;;;5097944;28;20948;-74
2023/02/24 02:03:38;;;;;;;0.60;0.60;;;;;;;;;;5107610;28;20460;-74
2023/02/24 02:06:06;;;;;;;0.60;0.60;;;;;;;;;;5099151;28;20472;-73
2023/02/24 02:08:35;;;;;;;0.60;0.60;;;;;;;;;;5081545;28;20472;-74
2023/02/24 02:11:03;;;;;;;0.63;0.60;;;;;;;;;;5098566;28;20457;-75
2023/02/24 02:13:34;;;;;;;0.60;0.60;;;;;;;;;;5099675;28;20838;-73
2023/02/24 02:16:07;;;;;;;0.70;0.70;;;;;;;;;;5099251;28;20438;-74
2023/02/24 02:18:46;;;;;;;0.60;0.60;;;;;;;;;;5105719;28;20895;-73
2023/02/24 02:22:01;;;;;;;0.60;0.60;;;;;;;;;;5087121;28;20466;-74
2023/02/24 02:24:44;;;;;;;0.60;0.60;;;;;;;;;;5101496;27;20456;-75
2023/02/24 02:27:22;;;;;;;0.60;0.60;;;;;;;;;;5105691;28;20502;-75
2023/02/24 02:30:05;;;;;;;0.60;0.60;;;;;;;;;;5098225;28;20457;-75
2023/02/24 02:33:00;;;;;;;0.60;0.60;;;;;;;;;;5090249;28;20453;-74
2023/02/24 02:35:38;;;;;;;0.60;0.60;;;;;;;;;;5097957;28;21005;-75
2023/02/24 02:38:13;;;;;;;0.60;0.60;;;;;;;;;;5091075;28;21078;-75
2023/02/24 02:40:48;;;;;;;0.60;0.60;;;;;;;;;;5104224;28;20526;-75
2023/02/24 02:43:29;;;;;;;0.60;0.60;;;;;;;;;;5089399;28;20968;-75
2023/02/24 02:46:07;;;;;;;0.60;0.60;;;;;;;;;;5093667;28;20602;-75
2023/02/24 02:48:40;;;;;;;0.60;0.60;;;;;;;;;;5085242;28;20441;-75
2023/02/24 02:51:15;;;;;;;0.60;0.60;;;;;;;;;;5106759;27;20450;-74
2023/02/24 02:53:50;;;;;;;0.60;0.60;;;;;;;;;;5088668;28;20902;-73
2023/02/24 02:56:22;;;;;;;0.60;0.60;;;;;;;;;;5080557;28;20449;-74
2023/02/24 02:58:53;;;;;;;0.87;0.87;;;;;;;;;;5099359;28;20793;-75
2023/02/24 03:01:30;;;;;;;0.60;0.60;;;;;;;;;;5103741;28;20441;-75
2023/02/24 03:04:03;;;;;;;0.60;0.60;;;;;;;;;;5105606;28;21025;-75
2023/02/24 03:06:34;;;;;;;0.60;0.57;;;;;;;;;;5100986;28;20479;-75
2023/02/24 03:09:11;;;;;;;0.60;0.60;;;;;;;;;;5094626;28;20503;-75
2023/02/24 03:11:41;;;;;;;0.60;0.53;;;;;;;;;;5089341;28;20552;-76
2023/02/24 03:14:23;;;;;;;0.60;0.50;;;;;;;;;;5097966;28;20808;-74
2023/02/24 03:16:55;;;;;;;0.60;0.60;;;;;;;;;;5082520;28;20778;-76
2023/02/24 03:19:30;;;;;;;0.60;0.60;;;;;;;;;;5096987;28;20840;-75
2023/02/24 03:22:11;;;;;;;0.63;0.60;;;;;;;;;;5098462;28;21024;-75
2023/02/24 03:24:50;;;;;;;0.70;0.60;;;;;;;;;;5089151;28;20458;-75
2023/02/24 03:27:27;;;;;;;0.70;0.60;;;;;;;;;;5096850;28;20933;-73
2023/02/24 03:30:20;;;;;;;0.60;0.60;;;;;;;;;;5100170;28;20445;-76
2023/02/24 03:32:54;;;;;;;0.60;0.60;;;;;;;;;;5099204;28;20434;-75
2023/02/24 03:35:33;;;;;;;0.60;0.60;;;;;;;;;;5087685;28;20453;-75
2023/02/24 03:38:05;;;;;;;0.60;0.60;;;;;;;;;;5093935;28;20477;-74
2023/02/24 03:40:34;;;;;;;0.60;0.60;;;;;;;;;;5088302;28;20446;-75
2023/02/24 03:43:27;;;;;;;0.70;0.60;;;;;;;;;;5101201;28;20516;-75
2023/02/24 03:46:01;;;;;;;0.70;0.60;;;;;;;;;;5100913;28;20497;-74
2023/02/24 03:48:33;;;;;;;0.60;0.60;;;;;;;;;;5105176;28;20453;-75
2023/02/24 03:51:04;;;;;;;0.70;0.70;;;;;;;;;;5103959;28;20445;-75
2023/02/24 03:53:55;;;;;;;0.63;0.60;;;;;;;;;;5115293;27;20469;-75
2023/02/24 03:56:28;;;;;;;0.60;0.60;;;;;;;;;;5087922;28;20430;-73
2023/02/24 03:59:11;;;;;;;0.70;0.70;;;;;;;;;;5083434;28;20445;-74
2023/02/24 04:01:47;;;;;;;0.60;0.60;;;;;;;;;;5082981;28;20548;-75
2023/02/24 04:04:21;;;;;;;0.60;0.60;;;;;;;;;;5103546;28;20455;-75
2023/02/24 04:06:58;;;;;;;0.60;0.60;;;;;;;;;;5101576;28;20480;-74
2023/02/24 04:09:36;;;;;;;0.60;0.60;;;;;;;;;;5101940;28;20442;-75
2023/02/24 04:12:08;;;;;;;0.70;0.60;;;;;;;;;;5102086;28;20449;-73
2023/02/24 04:14:40;;;;;;;0.60;0.60;;;;;;;;;;5109676;28;20445;-72
2023/02/24 04:17:12;;;;;;;0.60;0.60;;;;;;;;;;5091576;28;20462;-73
2023/02/24 04:19:40;;;;;;;0.70;0.70;;;;;;;;;;5108534;28;20475;-74
2023/02/24 04:22:11;;;;;;;0.70;0.70;;;;;;;;;;5100676;28;20485;-73
2023/02/24 04:24:43;;;;;;;0.60;0.60;;;;;;;;;;5106854;28;20540;-74
2023/02/24 04:27:10;;;;;;;0.60;0.60;;;;;;;;;;5099893;27;20556;-74
2023/02/24 04:29:45;;;;;;;0.60;0.60;;;;;;;;;;5099027;28;20460;-74
2023/02/24 04:32:17;;;;;;;0.60;0.60;;;;;;;;;;5103532;28;20482;-73
2023/02/24 04:34:45;;;;;;;0.60;0.60;;;;;;;;;;5102244;28;20441;-74
2023/02/24 04:37:34;;;;;;;0.60;0.60;;;;;;;;;;5100602;28;20473;-74
2023/02/24 04:40:24;;;;;;;0.67;0.60;;;;;;;;;;5109859;27;20449;-74
2023/02/24 04:42:52;;;;;;;0.70;0.60;;;;;;;;;;5101842;28;20434;-74
2023/02/24 04:45:22;;;;;;;0.60;0.60;;;;;;;;;;5102629;28;20456;-74
2023/02/24 04:47:51;;;;;;;0.60;0.60;;;;;;;;;;5104261;28;20531;-73
2023/02/24 04:50:21;;;;;;;0.70;0.70;;;;;;;;;;5105252;28;20490;-74
2023/02/24 04:52:50;;;;;;;0.60;0.60;;;;;;;;;;5105560;28;20461;-74
2023/02/24 04:55:18;;;;;;;0.60;0.60;;;;;;;;;;5101868;28;20520;-74
2023/02/24 04:57:46;;;;;;;2.90;2.20;;;;;;;;;;5103607;28;20502;-74
2023/02/24 05:00:21;;;;;;;0.70;0.70;;;;;;;;;;5106913;28;20548;-74
2023/02/24 05:02:49;;;;;;;0.70;0.70;;;;;;;;;;5100890;28;20437;-73
2023/02/24 05:05:17;;;;;;;0.63;0.60;;;;;;;;;;5101046;28;20449;-74
2023/02/24 05:07:47;;;;;;;0.60;0.60;;;;;;;;;;5103889;28;20480;-73
2023/02/24 05:10:14;;;;;;;0.70;0.60;;;;;;;;;;5102653;28;20448;-74
2023/02/24 05:12:41;;;;;;;0.60;0.60;;;;;;;;;;5104085;28;20567;-74
2023/02/24 05:15:11;;;;;;;0.60;0.60;;;;;;;;;;5106600;28;20461;-74
2023/02/24 05:17:39;;;;;;;0.60;0.60;;;;;;;;;;5101941;28;20443;-74
2023/02/24 05:22:54;;;;;;;0.70;0.70;;;;;;;;;;5095929;28;20706;-74
2023/02/24 05:25:24;;;;;;;0.60;0.60;;;;;;;;;;5106473;28;20193;-75
2023/02/24 05:27:50;;;;;;;0.60;0.60;;;;;;;;;;5102700;28;20967;-73
2023/02/24 05:30:19;;;;;;;0.70;0.70;;;;;;;;;;5101497;28;20615;-74
2023/02/24 05:32:47;;;;;;;0.60;0.60;;;;;;;;;;5094823;28;20438;-72
2023/02/24 05:35:14;;;;;;;0.60;0.60;;;;;;;;;;5102465;28;21161;-73
2023/02/24 05:37:41;;;;;;;0.70;0.70;;;;;;;;;;5101581;28;20218;-74
2023/02/24 05:40:12;;;;;;;0.70;0.70;;;;;;;;;;5103787;28;20446;-74
2023/02/24 05:42:40;;;;;;;0.60;0.60;;;;;;;;;;5100360;28;20283;-74
2023/02/24 05:45:07;;;;;;;0.60;0.60;;;;;;;;;;5100837;28;20196;-73
2023/02/24 05:47:55;;;;;;;0.60;0.60;;;;;;;;;;5101968;28;20564;-74
2023/02/24 05:50:25;;;;;;;0.60;0.50;;;;;;;;;;5092695;28;20468;-73
2023/02/24 05:52:51;;;;;;;0.60;0.50;;;;;;;;;;5098857;28;20948;-74
2023/02/24 05:55:22;;;;;;;0.60;0.60;;;;;;;;;;5098643;28;20497;-74
2023/02/24 05:57:49;;;;;;;0.70;0.60;;;;;;;;;;5093060;28;20442;-73
2023/02/24 06:00:17;;;;;;;0.60;0.60;;;;;;;;;;5102828;28;20860;-73
2023/02/24 06:02:48;;;;;;;0.60;0.60;;;;;;;;;;5092238;28;20486;-73
2023/02/24 06:05:24;;;;;;;0.60;0.60;;;;;;;;;;5104441;28;20473;-73
2023/02/24 06:08:01;;;;;;;0.60;0.60;;;;;;;;;;5099977;28;20964;-74
2023/02/24 06:10:30;;;;;;;0.60;0.50;;;;;;;;;;5107110;28;20449;-74
2023/02/24 06:12:57;;;;;;;0.60;0.60;;;;;;;;;;5099583;28;20515;-74
2023/02/24 06:15:24;;;;;;;0.70;0.70;;;;;;;;;;5104389;28;20203;-74
2023/02/24 06:17:55;;;;;;;0.60;0.60;;;;;;;;;;5100757;28;20194;-75
2023/02/24 06:20:25;;;;;;;0.70;0.60;;;;;;;;;;5102437;28;20214;-74
2023/02/24 06:22:53;;;;;;;0.60;0.60;;;;;;;;;;5093221;28;20246;-75
2023/02/24 06:25:23;;;;;;;0.60;0.60;;;;;;;;;;5103230;28;20234;-73
2023/02/24 06:27:53;;;;;;;0.60;0.60;;;;;;;;;;5105776;28;20300;-76
2023/02/24 06:30:21;;;;;;;0.70;0.60;;;;;;;;;;5101385;28;20233;-74
2023/02/24 06:32:50;;;;;;;0.70;0.60;;;;;;;;;;5100943;28;20444;-74
2023/02/24 06:35:41;;;;;;;0.82;0.82;;;;;;;;;;5095432;28;20210;-74
2023/02/24 06:38:08;;;;;;;0.70;0.70;;;;;;;;;;5098119;28;20212;-74
2023/02/24 06:40:36;;;;;;;0.70;0.60;;;;;;;;;;5102326;28;20194;-74
2023/02/24 06:43:03;;;;;;;0.60;0.60;;;;;;;;;;5098775;28;20728;-74
2023/02/24 06:45:30;;;;;;;0.90;0.90;;;;;;;;;;5096738;28;20232;-74
2023/02/24 06:47:58;;;;;;;0.77;0.77;;;;;;;;;;5097106;28;20204;-74
2023/02/24 06:50:24;;;;;;;0.70;0.70;;;;;;;;;;5090542;28;20192;-74
2023/02/24 06:52:59;;;;;;;0.70;0.70;;;;;;;;;;5093254;28;20310;-74
2023/02/24 06:55:27;;;;;;;0.60;0.60;;;;;;;;;;5097190;28;20223;-74
2023/02/24 06:57:56;;;;;;;0.60;0.60;;;;;;;;;;5100432;28;20282;-73
2023/02/24 07:00:35;;;;;;;0.60;0.50;;;;;;;;;;5103238;28;20483;-75
2023/02/24 07:03:13;;;;;;;0.60;0.60;;;;;;;;;;5102899;28;20195;-73
2023/02/24 07:08:42;;;;;;;0.60;0.60;;;;;;;;;;5097059;28;20474;-74
2023/02/24 07:11:10;;;;;;;0.70;0.70;;;;;;;;;;5105173;28;20252;-75
2023/02/24 07:13:36;;;;;;;0.70;0.60;;;;;;;;;;5096733;28;21087;-74
2023/02/24 07:16:06;;;;;;;0.60;0.60;;;;;;;;;;5097689;28;21000;-74
2023/02/24 07:18:39;;;;;;;0.60;0.60;;;;;;;;;;5103351;28;20770;-73
2023/02/24 07:21:15;;;;;;;0.60;0.60;;;;;;;;;;5099287;28;20476;-74
2023/02/24 07:24:06;;;;;;;0.70;0.60;;;;;;;;;;5102222;28;21151;-75
2023/02/24 07:26:33;;;;;;;0.60;0.60;;;;;;;;;;5102541;28;20433;-75
2023/02/24 07:29:03;;;;;;;0.60;0.60;;;;;;;;;;5091971;28;20427;-75
2023/02/24 07:31:48;;;;;;;0.60;0.60;;;;;;;;;;5095286;28;20487;-74
2023/02/24 07:34:22;;;;;;;0.60;0.60;;;;;;;;;;5107773;28;20445;-75
2023/02/24 07:36:50;;;;;;;0.67;0.67;;;;;;;;;;5099080;28;20441;-74
2023/02/24 07:39:18;;;;;;;0.70;0.70;;;;;;;;;;5101830;28;20797;-74
2023/02/24 07:41:48;;;;;;;0.60;0.60;;;;;;;;;;5100750;28;20437;-73
2023/02/24 07:44:15;;;;;;;0.70;0.70;;;;;;;;;;5094465;28;20425;-75
2023/02/24 07:46:43;;;;;;;0.60;0.60;;;;;;;;;;5092092;28;20458;-75
2023/02/24 07:49:11;;;;;;;0.60;0.60;;;;;;;;;;5106067;28;20489;-75
2023/02/24 07:51:38;;;;;;;0.60;0.60;;;;;;;;;;5103042;28;20929;-73
2023/02/24 07:54:07;;;;;;;3.53;3.33;;;;;;;;;;5092701;28;20967;-75
2023/02/24 07:56:44;;;;;;;0.60;0.60;;;;;;;;;;5098984;28;20463;-75
2023/02/24 07:59:14;;;;;;;0.67;0.67;;;;;;;;;;5097577;28;20483;-75
2023/02/24 08:01:48;;;;;;;0.70;0.70;;;;;;;;;;5099104;28;20446;-74
2023/02/24 08:04:17;;;;;;;0.60;0.60;;;;;;;;;;5102861;28;21282;-74
2023/02/24 08:06:44;;;;;;;0.60;0.60;;;;;;;;;;5092201;28;20433;-75
2023/02/24 08:09:19;;;;;;;0.60;0.60;;;;;;;;;;5095135;28;20469;-75
2023/02/24 08:11:51;;;;;;;0.60;0.60;;;;;;;;;;5096272;28;20434;-75
2023/02/24 08:14:18;;;;;;;0.60;0.60;;;;;;;;;;5098627;28;20421;-75
2023/02/24 08:16:47;;;;;;;0.70;0.60;;;;;;;;;;5094744;28;20429;-74
2023/02/24 08:19:19;;;;;;;0.60;0.60;;;;;;;;;;5087352;28;20465;-75
2023/02/24 08:21:49;;;;;;;0.60;0.60;;;;;;;;;;5094803;28;20774;-74
2023/02/24 08:24:17;;;;;;;0.70;0.70;;;;;;;;;;5090139;28;20430;-74
2023/02/24 08:26:45;;;;;;;0.60;0.60;;;;;;;;;;5096242;28;20504;-74
2023/02/24 08:29:13;;;;;;;0.70;0.70;;;;;;;;;;5104630;28;20534;-75
2023/02/24 08:31:41;;;;;;;0.60;0.60;;;;;;;;;;5097879;28;20542;-73
2023/02/24 08:34:09;;;;;;;0.70;0.60;;;;;;;;;;5104318;28;20514;-74
2023/02/24 08:36:36;;;;;;;0.70;0.60;;;;;;;;;;5100554;28;20431;-74
2023/02/24 08:39:03;;;;;;;0.70;0.70;;;;;;;;;;5099244;28;20430;-74
2023/02/24 08:41:43;;;;;;;0.60;0.60;;;;;;;;;;5104975;28;20799;-74
2023/02/24 08:44:15;;;;;;;0.60;0.60;;;;;;;;;;5097509;28;20783;-74
2023/02/24 08:46:44;;;;;;;0.70;0.60;;;;;;;;;;5095328;28;20515;-75
2023/02/24 08:49:15;;;;;;;0.60;0.60;;;;;;;;;;5096687;28;20565;-74
2023/02/24 08:51:44;;;;;;;0.60;0.60;;;;;;;;;;5105113;27;20473;-74
2023/02/24 08:54:14;;;;;;;0.63;0.60;;;;;;;;;;5095538;28;20440;-74
2023/02/24 08:56:47;;;;;;;0.70;0.60;;;;;;;;;;5104067;28;20469;-75
2023/02/24 09:02:22;;;;;;;0.70;0.70;;;;;;;;;;5104292;28;20429;-75
2023/02/24 09:04:51;;;;;;;0.60;0.60;;;;;;;;;;5107637;28;20430;-75
2023/02/24 09:07:20;;;;;;;0.70;0.60;;;;;;;;;;5117609;27;20467;-75
2023/02/24 09:09:47;;;;;;;1.07;1.00;;;;;;;;;;5102840;28;20943;-74
2023/02/24 09:12:23;;;;;;;0.60;0.60;;;;;;;;;;5101994;28;20432;-74
2023/02/24 09:14:55;;;;;;;0.60;0.60;;;;;;;;;;5101298;28;20989;-73
2023/02/24 09:17:38;;;;;;;0.60;0.60;;;;;;;;;;5104950;28;20425;-74
2023/02/24 09:23:01;;;;;;;0.60;0.60;;;;;;;;;;5107438;28;20897;-74
2023/02/24 09:25:48;;;;;;;0.60;0.60;;;;;;;;;;5108661;28;20449;-75
2023/02/24 09:28:23;;;;;;;0.70;0.60;;;;;;;;;;5100876;28;20460;-74
2023/02/24 09:30:52;;;;;;;0.83;0.83;;;;;;;;;;5101499;28;20564;-74
2023/02/24 09:33:22;;;;;;;0.70;0.60;;;;;;;;;;5106926;28;20960;-74
2023/02/24 09:35:50;;;;;;;0.70;0.70;;;;;;;;;;5100744;28;20469;-74
2023/02/24 09:41:31;;;;;;;0.70;0.60;;;;;;;;;;5103324;28;20516;-74
2023/02/24 09:44:02;;;;;;;0.70;0.60;;;;;;;;;;5099225;28;20476;-74
2023/02/24 09:46:34;;;;;;;0.67;0.60;;;;;;;;;;5095777;28;20465;-75
2023/02/24 09:49:06;;;;;;;0.60;0.60;;;;;;;;;;5105111;28;20474;-74
2023/02/24 09:51:41;;;;;;;0.70;0.60;;;;;;;;;;5101753;28;20427;-74
2023/02/24 09:54:31;;;;;;;0.70;0.70;;;;;;;;;;5101370;28;20426;-75
2023/02/24 09:57:07;;;;;;;0.70;0.60;;;;;;;;;;5100110;28;20445;-74
2023/02/24 09:59:49;;;;;;;0.70;0.60;;;;;;;;;;5099186;28;20487;-74
2023/02/24 10:02:27;;;;;;;0.70;0.70;;;;;;;;;;5104681;28;20463;-74
2023/02/24 10:05:05;;;;;;;0.60;0.60;;;;;;;;;;5101860;28;20424;-75
2023/02/24 10:07:39;;;;;;;0.70;0.70;;;;;;;;;;5095925;28;20491;-75
2023/02/24 10:10:18;;;;;;;0.70;0.60;;;;;;;;;;5097905;28;20793;-75
2023/02/24 10:12:49;;;;;;;0.70;0.70;;;;;;;;;;5100433;28;20444;-75
2023/02/24 10:15:18;;;;;;;0.87;0.87;;;;;;;;;;5102032;28;20839;-74
2023/02/24 10:17:49;;;;;;;0.70;0.60;;;;;;;;;;5097216;28;20992;-74
2023/02/24 10:20:37;;;;;;;0.70;0.60;;;;;;;;;;5107584;28;20550;-73
2023/02/24 10:23:11;;;;;;;0.70;0.60;;;;;;;;;;5112483;27;20786;-75
2023/02/24 10:25:41;;;;;;;0.70;0.70;;;;;;;;;;5100329;28;20866;-75
2023/02/24 10:28:35;;;;;;;0.70;0.70;;;;;;;;;;5099490;28;20461;-74
2023/02/24 10:31:23;;;;;;;0.70;0.70;;;;;;;;;;5098582;28;20903;-74
2023/02/24 10:33:55;;;;;;;0.70;0.70;;;;;;;;;;5093521;28;21456;-75
2023/02/24 10:36:34;;;;;;;0.70;0.60;;;;;;;;;;5096986;28;20430;-75
2023/02/24 10:39:07;;;;;;;2.20;1.00;;;;;;;;;;5092879;28;20429;-76
2023/02/24 10:41:44;;;;;;;0.70;0.70;;;;;;;;;;5103002;28;20814;-75
2023/02/24 10:44:15;;;;;;;2.40;1.33;;;;;;;;;;5092187;28;20446;-74
2023/02/24 10:46:42;;;;;;;0.60;0.60;;;;;;;;;;5092254;28;20425;-75
2023/02/24 10:49:15;;;;;;;0.70;0.70;;;;;;;;;;5100354;28;20882;-73
2023/02/24 10:51:47;;;;;;;0.70;0.70;;;;;;;;;;5091760;28;20807;-76
2023/02/24 10:54:33;;;;;;;0.70;0.60;;;;;;;;;;5098315;28;20483;-74
2023/02/24 10:57:16;;;;;;;0.70;0.70;;;;;;;;;;5105862;28;20442;-76
2023/02/24 11:00:19;;;;;;;0.70;0.60;;;;;;;;;;5100526;28;20450;-76
2023/02/24 11:03:09;;;;;;;0.70;0.60;;;;;;;;;;5102655;28;20531;-74
2023/02/24 11:05:55;;;;;;;0.70;0.60;;;;;;;;;;5095957;28;20457;-75
2023/02/24 11:09:18;;;;;;;0.73;0.73;;;;;;;;;;5100216;28;20552;-76
2023/02/24 11:11:24;;;;;;;0.70;0.70;;;;;;;;;;5095466;28;20504;-74
2023/02/24 11:19:30;;;;;;;0.70;0.60;;;;;;;;;;5097490;28;20442;-75
2023/02/24 11:22:01;;;;;;;0.63;0.60;;;;;;;;;;5093167;28;20465;-75
2023/02/24 11:24:28;;;;;;;0.70;0.60;;;;;;;;;;5101368;28;20437;-75
2023/02/24 11:26:56;;;;;;;0.70;0.63;;;;;;;;;;5095781;28;20822;-74
2023/02/24 11:29:36;;;;;;;0.70;0.60;;;;;;;;;;5096195;28;20475;-75
2023/02/24 11:32:18;;;;;;;0.60;0.60;;;;;;;;;;5099363;28;20947;-75
2023/02/24 11:34:50;;;;;;;0.70;0.60;;;;;;;;;;5118795;27;20437;-75
2023/02/24 11:37:24;;;;;;;0.67;0.60;;;;;;;;;;5102702;28;20473;-75
2023/02/24 11:39:54;;;;;;;0.70;0.60;;;;;;;;;;5098779;28;20453;-74
2023/02/24 11:42:26;;;;;;;0.70;0.60;;;;;;;;;;5097338;28;20517;-74
2023/02/24 11:44:57;;;;;;;0.60;0.60;;;;;;;;;;5104816;28;20845;-77
2023/02/24 11:47:27;;;;;;;0.70;0.60;;;;;;;;;;5095387;28;20429;-74
2023/02/24 11:50:02;;;;;;;0.70;0.70;;;;;;;;;;5096980;28;20457;-75
2023/02/24 11:52:34;;;;;;;0.70;0.60;;;;;;;;;;5102779;28;20484;-76
2023/02/24 11:55:04;;;;;;;0.70;0.70;;;;;;;;;;5100669;28;20486;-74
2023/02/24 11:57:36;;;;;;;0.90;0.90;;;;;;;;;;5099425;28;20437;-76
2023/02/24 12:00:11;;;;;;;0.70;0.60;;;;;;;;;;5095352;28;20451;-75
2023/02/24 12:02:43;;;;;;;0.60;0.60;;;;;;;;;;5092945;28;20946;-77
2023/02/24 12:05:13;;;;;;;0.60;0.60;;;;;;;;;;5095983;28;20827;-76
2023/02/24 12:08:04;;;;;;;0.70;0.70;;;;;;;;;;5098929;28;20465;-74
2023/02/24 12:10:34;;;;;;;0.70;0.60;;;;;;;;;;5096694;28;20914;-76
2023/02/24 12:13:05;;;;;;;0.73;0.73;;;;;;;;;;5099427;28;20479;-74
2023/02/24 12:15:37;;;;;;;0.70;0.60;;;;;;;;;;5099492;28;20425;-75
2023/02/24 12:18:30;;;;;;;0.70;0.70;;;;;;;;;;5097763;28;20583;-76
2023/02/24 12:21:01;;;;;;;0.60;0.60;;;;;;;;;;5101823;28;20455;-76
2023/02/24 12:23:49;;;;;;;1.07;1.07;;;;;;;;;;5097304;28;20442;-74
2023/02/24 12:26:17;;;;;;;1.00;1.00;;;;;;;;;;5102294;28;20430;-74
2023/02/24 12:28:59;;;;;;;0.70;0.60;;;;;;;;;;5105282;28;20452;-75
2023/02/24 12:31:30;;;;;;;0.70;0.60;;;;;;;;;;5108629;27;21044;-76
2023/02/24 12:34:01;;;;;;;0.60;0.60;;;;;;;;;;5103187;28;20517;-75
2023/02/24 12:36:53;;;;;;;0.70;0.60;;;;;;;;;;5107176;28;20547;-73
2023/02/24 12:39:46;;;;;;;0.63;0.60;;;;;;;;;;5095896;28;20436;-74
2023/02/24 12:42:19;;;;;;;0.60;0.60;;;;;;;;;;5096412;28;20494;-74
2023/02/24 12:45:10;;;;;;;0.70;0.60;;;;;;;;;;5101596;28;20437;-74
2023/02/24 12:47:42;;;;;;;0.60;0.60;;;;;;;;;;5095854;28;20956;-74
2023/02/24 12:50:13;;;;;;;0.60;0.60;;;;;;;;;;5103351;28;21015;-74
2023/02/24 12:53:00;;;;;;;0.70;0.60;;;;;;;;;;5100039;28;20448;-76
2023/02/24 12:55:35;;;;;;;0.60;0.60;;;;;;;;;;5102238;28;20203;-77
2023/02/24 12:58:07;;;;;;;0.70;0.60;;;;;;;;;;5097860;28;21116;-75
2023/02/24 13:00:39;;;;;;;0.80;0.67;;;;;;;;;;5100258;28;20430;-76
2023/02/24 13:03:12;;;;;;;0.70;0.60;;;;;;;;;;5102644;28;20444;-77
2023/02/24 13:05:43;;;;;;;0.60;0.60;;;;;;;;;;5099155;28;20434;-75
2023/02/24 13:08:17;;;;;;;0.60;0.60;;;;;;;;;;5100694;28;20453;-76
2023/02/24 13:10:48;;;;;;;0.60;0.60;;;;;;;;;;5104090;28;20452;-77
2023/02/24 13:13:18;;;;;;;0.70;0.70;;;;;;;;;;5103520;28;20781;-76
2023/02/24 13:15:50;;;;;;;0.70;0.60;;;;;;;;;;5105001;28;20917;-77
2023/02/24 13:18:35;;;;;;;0.70;0.60;;;;;;;;;;5099725;28;20966;-75
2023/02/24 13:21:08;;;;;;;0.60;0.60;;;;;;;;;;5103329;28;20848;-77
2023/02/24 13:23:39;;;;;;;0.70;0.70;;;;;;;;;;5116775;27;20526;-77
2023/02/24 13:26:09;;;;;;;0.60;0.60;;;;;;;;;;5099244;28;20497;-77
2023/02/24 13:28:37;;;;;;;0.60;0.60;;;;;;;;;;5090030;28;20997;-77
2023/02/24 13:31:05;;;;;;;0.60;0.60;;;;;;;;;;5094207;28;20445;-79
2023/02/24 13:33:34;;;;;;;0.70;0.70;;;;;;;;;;5100003;28;20437;-76
2023/02/24 13:36:05;;;;;;;0.70;0.70;;;;;;;;;;5086356;28;20473;-78
2023/02/24 13:38:37;;;;;;;0.60;0.60;;;;;;;;;;5097169;28;20553;-77
2023/02/24 13:41:06;;;;;;;0.60;0.60;;;;;;;;;;5098538;28;20434;-77
2023/02/24 13:43:35;;;;;;;0.70;0.70;;;;;;;;;;5099767;28;20428;-77
2023/02/24 13:46:03;;;;;;;0.70;0.70;;;;;;;;;;5101740;28;20204;-77
2023/02/24 13:48:45;;;;;;;0.60;0.60;;;;;;;;;;5099159;28;20424;-79
2023/02/24 13:51:21;;;;;;;0.60;0.60;;;;;;;;;;5095983;28;20453;-76
2023/02/24 13:53:57;;;;;;;0.60;0.60;;;;;;;;;;5103718;28;20473;-77
2023/02/24 13:56:28;;;;;;;0.70;0.70;;;;;;;;;;5098386;28;20535;-77
2023/02/24 13:59:13;;;;;;;0.70;0.70;;;;;;;;;;5100124;28;20433;-78
2023/02/24 14:01:47;;;;;;;0.60;0.60;;;;;;;;;;5099756;28;20492;-77
2023/02/24 14:04:16;;;;;;;0.70;0.63;;;;;;;;;;5100890;28;20529;-77
2023/02/24 14:06:47;;;;;;;0.60;0.60;;;;;;;;;;5104905;28;20195;-76
2023/02/24 14:09:16;;;;;;;0.60;0.60;;;;;;;;;;5097617;28;20851;-77
2023/02/24 14:11:43;;;;;;;0.60;0.60;;;;;;;;;;5100835;28;20450;-77
2023/02/24 14:14:14;;;;;;;0.60;0.60;;;;;;;;;;5093928;28;20436;-76
2023/02/24 14:16:43;;;;;;;0.60;0.60;;;;;;;;;;5099047;28;20449;-76
2023/02/24 14:19:13;;;;;;;0.60;0.60;;;;;;;;;;5102555;28;20445;-77
2023/02/24 14:21:46;;;;;;;0.70;0.70;;;;;;;;;;5097011;28;20456;-78
2023/02/24 14:24:12;;;;;;;0.60;0.60;;;;;;;;;;5107570;28;20433;-78
2023/02/24 14:26:44;;;;;;;0.60;0.60;;;;;;;;;;5103828;28;20459;-77
2023/02/24 14:29:13;;;;;;;0.60;0.60;;;;;;;;;;5100943;28;20465;-77
2023/02/24 14:31:39;;;;;;;0.60;0.60;;;;;;;;;;5099531;28;20438;-77
2023/02/24 14:34:13;;;;;;;0.60;0.60;;;;;;;;;;5105420;28;20453;-76
2023/02/24 14:36:43;;;;;;;0.70;0.60;;;;;;;;;;5099575;28;20964;-76
2023/02/24 14:39:13;;;;;;;0.60;0.60;;;;;;;;;;5099473;28;20858;-76
2023/02/24 14:41:42;;;;;;;0.70;0.70;;;;;;;;;;5091016;28;20479;-77
2023/02/24 14:44:20;;;;;;;0.60;0.60;;;;;;;;;;5098548;28;20533;-76
2023/02/24 14:46:48;;;;;;;0.70;0.70;;;;;;;;;;5096326;28;20474;-76
2023/02/24 14:49:17;;;;;;;0.60;0.60;;;;;;;;;;5095690;28;20457;-78
2023/02/24 14:51:50;;;;;;;0.60;0.60;;;;;;;;;;5095952;28;20470;-77
2023/02/24 14:54:20;;;;;;;2.00;1.30;;;;;;;;;;5103230;28;20476;-78
2023/02/24 14:56:46;;;;;;;0.80;0.80;;;;;;;;;;5099996;28;20464;-77
2023/02/24 14:59:20;;;;;;;0.60;0.50;;;;;;;;;;5103359;28;20417;-76
2023/02/24 15:01:50;;;;;;;0.60;0.60;;;;;;;;;;5103865;28;20433;-75
2023/02/24 15:04:24;;;;;;;0.60;0.60;;;;;;;;;;5096233;28;20874;-75
2023/02/24 15:06:52;;;;;;;0.60;0.60;;;;;;;;;;5097697;28;20547;-76
2023/02/24 15:09:20;;;;;;;0.60;0.50;;;;;;;;;;5102404;28;20489;-76
2023/02/24 15:11:48;;;;;;;0.60;0.60;;;;;;;;;;5107101;28;20432;-76
2023/02/24 15:14:19;;;;;;;0.60;0.60;;;;;;;;;;5094309;28;20803;-76
2023/02/24 15:16:48;;;;;;;0.60;0.50;;;;;;;;;;5098005;28;20430;-75
2023/02/24 15:19:22;;;;;;;0.60;0.60;;;;;;;;;;5097378;28;20429;-76
2023/02/24 15:21:53;;;;;;;0.60;0.60;;;;;;;;;;5106337;28;20829;-77
2023/02/24 15:24:24;;;;;;;0.60;0.60;;;;;;;;;;5103970;28;20886;-77
2023/02/24 15:26:53;;;;;;;0.60;0.60;;;;;;;;;;5090048;28;20877;-77
2023/02/24 15:29:24;;;;;;;0.60;0.50;;;;;;;;;;5100717;28;21049;-77
2023/02/24 15:31:51;;;;;;;0.60;0.60;;;;;;;;;;5098994;28;20853;-77
2023/02/24 15:34:20;;;;;;;0.60;0.50;;;;;;;;;;5088925;28;20474;-76
2023/02/24 15:36:47;;;;;;;0.60;0.60;;;;;;;;;;5091860;28;20426;-76
2023/02/24 15:39:19;;;;;;;0.60;0.60;;;;;;;;;;5100507;28;20449;-79